Portada
METAR-TAF:

METAR-TAF

Aeroports :

South Alabama Regional Airport

Andalusia, Alabama, Estats Units d'Amèrica

latitud: 31-18-00N, longitud: 086-23-00W, altitud: 94 m

Observació

L'informe es va fer fa 45 minuts, a les 08:56 UTC
Vent 3 kt del Nord/Nord-Est
Temperatura -2°C
Humitat 74%
Pressió 1028 hPa
Visibilitat: 16.1 km
Cel clar

METAR: K79J 220856Z AUTO 02003KT 10SM CLR M02/M06 A3035 RMK AO2 SLP280 T10171061 58013 $

Hora: 03:41 (09:41 UTC)


TAF: manca

Observacions i pronòstics meteorològics de més de 4000 aeroports (METAR i TAF).

Les estacions disponibles són els punts grocs i vermells al mapa.

Posi el ratolí al punt desitjat per veure el nom de l'estació.

Feu clic per veure les observacions i els pronòstics meteorològics.

Per canviar el mapa: feu clic els botons verds amb una creu de color negre per apropar; al botó verd amb un guió per allunyar la imatge; o en les fletxes verdes per a mapes adjacents.


METAR-TAF: